Flight Track Log - Related Links

Times and Time Zones

All times are in EDT time to prevent confusion due to time zone crossing. See the EJA370 flight status page for this flight to view local times or setup timezone preferences in your user account.


Time Position Orientation Groundspeed Altitude Reporting Facility
EDT Latitude Longitude Course Direction KTS MPH feet Rate Location/Type
Mon 05:18:57 PM 29.6167 -95.6592 183° South 187 215 900  Level Houston Center
Mon 05:19:46 PM 29.5747 -95.6617 183° South 200 230 2,000 1,108 Climbing Houston Center
Mon 05:20:02 PM 29.5628 -95.6761 226° Southwest 247 284 2,100 2,656 Climbing Houston Center
Mon 05:20:47 PM 29.5231 -95.7181 223° Southwest 257 296 4,700 2,806 Climbing Houston Center
Mon 05:21:04 PM 29.5136 -95.7289 225° Southwest 245 282 5,000 295 Climbing Houston Center
Mon 05:21:48 PM 29.4697 -95.7769 224° Southwest 275 316 5,000  Level Houston Center
Mon 05:22:06 PM 29.4594 -95.7875 222° Southwest 263 303 5,000  Level Houston Center
Mon 05:23:08 PM 29.4147 -95.8561 233° Southwest 270 311 5,000  Level Houston Center
Mon 05:24:10 PM 29.3764 -95.9292 239° Southwest 269 310 5,000  Level Houston Center
Mon 05:25:12 PM 29.3375 -96.0050 240° Southwest 262 302 5,000 435 Level Houston Center
Mon 05:26:14 PM 29.2992 -96.0756 238° Southwest 261 300 5,900 532 Climbing Houston Center
Mon 05:27:16 PM 29.2550 -96.1594 239° Southwest 257 296 6,100 48 Climbing Houston Center
Mon 05:28:18 PM 29.2133 -96.2383 239° Southwest 280 322 6,000 -96 Descending Houston Center
Mon 05:29:21 PM 29.1731 -96.3161 239° Southwest 284 327 5,900 -48 Descending Houston Center
Mon 05:30:23 PM 29.1319 -96.3931 239° Southwest 283 326 5,900 -484 Level Houston Center
Mon 05:31:25 PM 29.0919 -96.4697 239° Southwest 281 323 4,900 -1,210 Descending Houston Center
Mon 05:32:27 PM 29.0522 -96.5428 238° Southwest 274 315 3,400 -1,355 Descending Houston Center
Mon 05:33:29 PM 29.0247 -96.6214 248° West 270 311 2,100 -629 Descending Houston Center
Mon 05:34:31 PM 28.9986 -96.7178 253° West 265 305 2,100  Level Houston Center
Mon 05:35:33 PM 28.9758 -96.7981 252° West 265 305 2,100 -194 Level Houston Center
Mon 05:36:35 PM 28.9531 -96.8772 252° West 263 303 1,700 -145 Descending Houston Center
Mon 05:37:37 PM 28.9325 -96.9486 252° West 253 291 1,800 -339 Climbing Houston Center
Mon 05:38:39 PM 28.8967 -96.9719 210° Southwest 204 235 1,000 -774 Descending Houston Center

Login

Don't have an account? Register now (free) for customized features, flight alerts, and more!